Time;durP1;ratioP1;P1;durP2;ratioP2;P2;SDS_P1;SDS_P2;PMS_P1;PMS_P2;Temp;Humidity;BMP_temperature;BMP_pressure;BME280_temperature;BME280_humidity;BME280_pressure;Samples;Min_cycle;Max_cycle;Signal;HPM_P1;HPM_P2
2021/01/18 00:00:58;;;;;;;540.57;148.93;;;;;;;-13.58;73.27;99612.33;119891;1144;65085;-85
2021/01/18 00:03:25;;;;;;;547.67;153.17;;;;;;;-13.63;73.26;99609.59;119790;1144;65104;-86
2021/01/18 00:05:52;;;;;;;547.05;147.85;;;;;;;-13.66;73.27;99612.08;119716;1145;65159;-83
2021/01/18 00:08:18;;;;;;;512.77;140.67;;;;;;;-13.78;73.20;99612.55;119754;1145;65098;-83
2021/01/18 00:10:45;;;;;;;538.53;149.97;;;;;;;-13.90;72.90;99609.56;119639;1144;65069;-83
2021/01/18 00:13:12;;;;;;;507.50;145.70;;;;;;;-13.94;73.54;99602.57;119686;1148;65098;-82
2021/01/18 00:15:38;;;;;;;540.70;152.43;;;;;;;-13.84;73.82;99601.20;119764;1147;65135;-85
2021/01/18 00:18:05;;;;;;;565.17;155.77;;;;;;;-13.78;73.73;99609.11;119783;1147;65092;-84
2021/01/18 00:20:31;;;;;;;505.07;143.20;;;;;;;-13.73;73.70;99605.88;119809;1147;65200;-83
2021/01/18 00:22:58;;;;;;;449.98;123.33;;;;;;;-13.80;73.81;99605.59;119795;1147;65194;-82
2021/01/18 00:25:26;;;;;;;410.40;115.60;;;;;;;-13.82;73.58;99592.72;119811;1146;65024;-83
2021/01/18 00:27:53;;;;;;;427.43;121.30;;;;;;;-13.70;73.23;99597.39;119849;1144;65063;-84
2021/01/18 00:30:22;;;;;;;398.67;109.40;;;;;;;-13.51;74.29;99597.16;119768;1147;65221;-83
2021/01/18 00:32:50;;;;;;;446.95;123.10;;;;;;;-13.42;73.70;99594.89;119806;1147;65199;-83
2021/01/18 00:35:18;;;;;;;394.77;107.23;;;;;;;-13.37;73.44;99592.45;119778;1147;65100;-84
2021/01/18 00:37:52;;;;;;;376.93;102.80;;;;;;;-13.19;74.08;99594.69;119851;1147;65127;-84
2021/01/18 00:40:20;;;;;;;367.33;103.23;;;;;;;-13.14;73.45;99603.42;119811;1147;65134;-83
2021/01/18 00:42:48;;;;;;;467.30;121.40;;;;;;;-13.22;73.10;99602.36;119842;1144;65628;-84
2021/01/18 00:45:18;;;;;;;373.85;100.80;;;;;;;-13.17;73.56;99598.17;119828;1144;65066;-84
2021/01/18 00:47:48;;;;;;;394.70;104.85;;;;;;;-13.09;73.96;99591.59;119551;1145;65178;-81
2021/01/18 00:50:16;;;;;;;299.60;82.00;;;;;;;-12.99;74.08;99587.58;119865;1144;65209;-82
2021/01/18 00:52:44;;;;;;;419.27;118.27;;;;;;;-12.90;73.63;99585.30;119753;1145;65193;-81
2021/01/18 00:55:18;;;;;;;318.10;88.47;;;;;;;-12.88;73.56;99581.93;120297;1144;64940;-83
2021/01/18 00:58:03;;;;;;;427.93;113.43;;;;;;;-12.75;73.63;99575.44;119755;1145;65168;-84
2021/01/18 01:00:30;;;;;;;438.20;119.57;;;;;;;-12.70;74.13;99579.02;120078;1144;65119;-84
2021/01/18 01:02:57;;;;;;;489.43;131.63;;;;;;;-12.77;73.43;99578.81;119866;1144;65197;-82
2021/01/18 01:05:26;;;;;;;492.95;134.45;;;;;;;-12.86;73.43;99572.55;119892;1144;65100;-84
2021/01/18 01:07:56;;;;;;;440.80;129.93;;;;;;;-12.85;73.63;99576.89;120688;1144;64985;-83
2021/01/18 01:10:24;;;;;;;439.80;123.67;;;;;;;-12.92;73.76;99574.07;119856;1144;65207;-84
2021/01/18 01:13:02;;;;;;;496.17;131.33;;;;;;;-12.91;73.97;99576.72;120185;1144;65159;-83
2021/01/18 01:15:30;;;;;;;512.00;134.27;;;;;;;-12.88;74.16;99565.63;119787;1147;65443;-83
2021/01/18 01:17:57;;;;;;;480.47;137.57;;;;;;;-12.95;73.79;99567.16;120176;1147;65156;-83
2021/01/18 01:20:24;;;;;;;493.93;133.43;;;;;;;-12.98;73.60;99559.33;119848;1145;65075;-83
2021/01/18 01:22:51;;;;;;;483.43;130.67;;;;;;;-12.96;73.56;99565.41;119836;1144;65124;-82
2021/01/18 01:25:20;;;;;;;491.05;132.75;;;;;;;-12.91;73.76;99569.00;120099;1144;65162;-83
2021/01/18 01:27:48;;;;;;;511.30;128.67;;;;;;;-13.02;73.25;99566.94;119763;1144;65185;-84
2021/01/18 01:30:17;;;;;;;490.77;131.47;;;;;;;-13.09;73.33;99561.61;120161;1147;65153;-84
2021/01/18 01:32:48;;;;;;;513.83;135.90;;;;;;;-13.13;72.97;99566.60;119885;1144;65187;-84
2021/01/18 01:35:17;;;;;;;504.03;133.33;;;;;;;-13.18;73.45;99560.45;119905;1144;65157;-83
2021/01/18 01:37:43;;;;;;;504.67;131.87;;;;;;;-13.25;73.39;99551.72;120020;1145;65102;-82
2021/01/18 01:40:12;;;;;;;474.55;130.70;;;;;;;-13.18;74.10;99551.03;119929;1144;65071;-83
2021/01/18 01:42:39;;;;;;;475.73;138.07;;;;;;;-13.23;73.60;99550.09;120096;1145;65177;-83
2021/01/18 01:45:07;;;;;;;489.67;138.13;;;;;;;-13.28;73.56;99549.07;119842;1144;65165;-84
2021/01/18 01:47:44;;;;;;;427.30;119.70;;;;;;;-13.40;73.46;99548.69;120053;1144;65121;-82
2021/01/18 01:50:24;;;;;;;422.43;117.30;;;;;;;-13.42;73.61;99546.08;119798;1144;65107;-82
2021/01/18 01:53:00;;;;;;;408.87;108.07;;;;;;;-13.42;73.80;99558.03;120237;1146;64979;-82
2021/01/18 01:55:29;;;;;;;375.87;105.97;;;;;;;-13.35;74.20;99552.28;120121;1144;65417;-82
2021/01/18 01:57:59;;;;;;;371.00;103.70;;;;;;;-13.35;73.64;99557.42;120245;1144;65108;-82
2021/01/18 02:00:37;;;;;;;333.17;98.50;;;;;;;-13.40;73.63;99557.27;119921;1144;65146;-82
2021/01/18 02:03:06;;;;;;;349.50;98.53;;;;;;;-13.60;73.29;99552.34;119426;1145;65166;-82
2021/01/18 02:05:33;;;;;;;352.77;98.03;;;;;;;-13.76;72.86;99556.10;119722;1144;65098;-82
2021/01/18 02:08:04;;;;;;;365.40;105.93;;;;;;;-13.87;73.04;99554.88;119508;1144;65066;-82
2021/01/18 02:10:32;;;;;;;365.23;109.17;;;;;;;-13.82;73.62;99555.91;119732;1144;65213;-83
2021/01/18 02:13:02;;;;;;;360.67;105.30;;;;;;;-13.77;73.71;99559.50;119533;1145;65181;-84
2021/01/18 02:15:46;;;;;;;389.83;110.33;;;;;;;-13.64;74.34;99566.77;119586;1144;65092;-83
2021/01/18 02:18:40;;;;;;;395.52;113.50;;;;;;;-13.54;74.01;99557.67;120226;1145;65076;-83
2021/01/18 02:21:25;;;;;;;365.45;106.00;;;;;;;-13.64;73.78;99561.63;119871;1146;65055;-84
2021/01/18 02:24:31;;;;;;;369.20;105.97;;;;;;;-13.63;73.47;99563.38;120369;1144;65028;-83
2021/01/18 02:27:04;;;;;;;370.00;107.75;;;;;;;-13.58;73.91;99559.27;119841;1144;63749;-85
2021/01/18 02:29:52;;;;;;;378.43;107.50;;;;;;;-13.60;73.84;99560.05;120033;1144;65060;-83
2021/01/18 02:32:37;;;;;;;362.13;105.13;;;;;;;-13.65;73.79;99557.33;119850;1144;65020;-83
2021/01/18 02:35:32;;;;;;;361.63;97.40;;;;;;;-13.66;73.41;99558.16;120148;1144;65140;-83
2021/01/18 02:38:18;;;;;;;358.35;95.03;;;;;;;-13.77;73.12;99551.80;119869;1144;65069;-85
2021/01/18 02:41:00;;;;;;;336.75;89.90;;;;;;;-13.78;73.55;99550.05;119889;1145;65085;-83
2021/01/18 02:43:49;;;;;;;325.10;95.70;;;;;;;-13.84;73.04;99555.86;120051;1145;65098;-82
2021/01/18 02:46:20;;;;;;;350.93;99.90;;;;;;;-13.79;73.37;99551.75;119937;1144;65076;-84
2021/01/18 02:48:47;;;;;;;363.73;100.00;;;;;;;-13.81;73.84;99544.80;120083;1144;65097;-84
2021/01/18 02:51:20;;;;;;;393.67;107.10;;;;;;;-13.80;73.71;99551.67;119846;1144;65174;-82
2021/01/18 02:53:57;;;;;;;348.37;101.80;;;;;;;-13.86;72.90;99551.52;120396;1145;65102;-86
2021/01/18 02:56:31;;;;;;;381.33;101.90;;;;;;;-13.87;73.12;99550.61;119861;1144;65153;-84
2021/01/18 02:59:00;;;;;;;360.87;101.53;;;;;;;-13.80;73.23;99552.58;120343;1144;65155;-83
2021/01/18 03:01:26;;;;;;;358.10;97.80;;;;;;;-13.98;72.80;99551.98;120051;1144;65089;-84
2021/01/18 03:04:06;;;;;;;378.00;101.20;;;;;;;-14.08;72.41;99544.78;119847;1144;65089;-83
2021/01/18 03:06:45;;;;;;;327.60;93.77;;;;;;;-14.16;72.73;99534.27;120000;1145;65040;-83
2021/01/18 03:09:18;;;;;;;333.17;90.73;;;;;;;-14.20;72.59;99540.11;119840;1144;65167;-83
2021/01/18 03:11:49;;;;;;;321.50;87.80;;;;;;;-14.24;73.29;99539.15;120106;1144;65031;-84
2021/01/18 03:14:26;;;;;;;296.97;85.60;;;;;;;-14.14;73.13;99535.18;119922;1144;65170;-83
2021/01/18 03:16:56;;;;;;;324.30;86.17;;;;;;;-13.95;73.41;99536.66;119957;1144;65132;-84
2021/01/18 03:19:42;;;;;;;305.87;80.43;;;;;;;-13.79;73.18;99531.22;120095;1144;65108;-82
2021/01/18 03:22:10;;;;;;;313.63;86.53;;;;;;;-13.73;72.85;99533.11;119976;1144;65231;-82
2021/01/18 03:24:37;;;;;;;285.50;78.63;;;;;;;-13.82;73.00;99532.80;120190;1143;65111;-84
2021/01/18 03:27:04;;;;;;;274.00;76.55;;;;;;;-13.83;72.69;99542.20;119834;1144;65133;-82
2021/01/18 03:29:31;;;;;;;253.00;69.03;;;;;;;-13.91;72.54;99535.95;120006;1144;65117;-84
2021/01/18 03:31:58;;;;;;;239.70;65.80;;;;;;;-13.92;73.15;99541.91;119854;1144;65086;-86
2021/01/18 03:34:24;;;;;;;236.67;62.90;;;;;;;-13.92;73.21;99541.91;119881;1144;65184;-83
2021/01/18 03:36:51;;;;;;;230.13;65.00;;;;;;;-13.82;73.38;99543.94;120222;1144;65100;-83
2021/01/18 03:39:17;;;;;;;237.05;67.10;;;;;;;-13.88;73.16;99532.59;120198;1144;65650;-83
2021/01/18 03:41:46;;;;;;;216.33;62.80;;;;;;;-13.97;72.70;99531.48;120098;1145;65143;-83
2021/01/18 03:44:12;;;;;;;248.50;62.65;;;;;;;-13.94;72.80;99534.14;119902;1144;65537;-83
2021/01/18 03:46:46;;;;;;;217.97;64.33;;;;;;;-13.93;72.83;99532.44;120140;1144;65172;-83
2021/01/18 03:49:13;;;;;;;210.50;60.73;;;;;;;-13.92;72.96;99532.52;119904;1144;65429;-84
2021/01/18 03:51:40;;;;;;;262.03;69.00;;;;;;;-13.94;73.49;99536.70;120153;1144;65098;-83
2021/01/18 03:54:06;;;;;;;222.13;60.17;;;;;;;-13.97;73.64;99534.05;119862;1144;65121;-85
2021/01/18 03:56:40;;;;;;;230.13;57.67;;;;;;;-13.97;73.29;99534.05;119699;1147;65105;-81
2021/01/18 03:59:07;;;;;;;177.60;52.50;;;;;;;-13.93;73.31;99529.88;119987;1144;65136;-82
2021/01/18 04:01:39;;;;;;;203.27;54.63;;;;;;;-13.98;73.58;99531.44;120184;1146;65235;-81
2021/01/18 04:04:06;;;;;;;188.27;55.77;;;;;;;-13.96;73.60;99525.52;120102;1144;65152;-82
2021/01/18 04:06:39;;;;;;;199.43;59.80;;;;;;;-13.90;73.26;99529.98;119977;1147;65056;-83
2021/01/18 04:09:06;;;;;;;204.73;62.73;;;;;;;-13.75;73.78;99529.59;119934;1144;65092;-82
2021/01/18 04:11:33;;;;;;;220.97;64.47;;;;;;;-13.53;73.81;99526.89;120082;1144;65133;-84
2021/01/18 04:13:59;;;;;;;220.37;62.33;;;;;;;-13.37;74.00;99517.94;119890;1145;65260;-82
2021/01/18 04:16:26;;;;;;;213.70;62.60;;;;;;;-13.23;74.10;99519.25;119869;1144;65101;-82
2021/01/18 04:18:52;;;;;;;205.00;58.80;;;;;;;-12.93;74.61;99506.35;120096;1144;65127;-83
2021/01/18 04:21:19;;;;;;;204.50;61.63;;;;;;;-12.69;74.47;99510.45;119921;1144;65114;-84
2021/01/18 04:23:45;;;;;;;186.40;59.10;;;;;;;-12.70;73.30;99509.58;120367;1144;65063;-84
2021/01/18 04:26:12;;;;;;;196.15;61.10;;;;;;;-12.63;73.91;99508.91;119900;1144;65120;-84
2021/01/18 04:28:40;;;;;;;253.63;69.93;;;;;;;-12.65;73.49;99509.71;119984;1147;65089;-83
2021/01/18 04:31:06;;;;;;;241.60;70.13;;;;;;;-12.68;73.54;99512.18;120010;1144;65121;-83
2021/01/18 04:33:33;;;;;;;314.03;85.20;;;;;;;-12.79;73.43;99509.30;119867;1144;65117;-83
2021/01/18 04:35:59;;;;;;;423.90;111.30;;;;;;;-12.82;73.39;99510.11;120040;1144;65105;-82
2021/01/18 04:38:26;;;;;;;442.37;123.20;;;;;;;-12.83;73.66;99510.06;120223;1145;65201;-85
2021/01/18 04:40:52;;;;;;;461.67;121.37;;;;;;;-12.86;73.53;99510.83;120185;1144;65201;-83
2021/01/18 04:43:18;;;;;;;410.05;109.25;;;;;;;-12.86;73.72;99513.41;119961;1144;65043;-83
2021/01/18 04:45:48;;;;;;;410.70;115.50;;;;;;;-12.95;73.27;99505.45;119869;1144;65108;-83
2021/01/18 04:48:14;;;;;;;425.37;115.70;;;;;;;-12.87;73.79;99501.38;120526;1145;65095;-82
2021/01/18 04:50:41;;;;;;;454.70;119.30;;;;;;;-12.66;74.00;99501.12;119927;1145;65108;-83
2021/01/18 04:53:15;;;;;;;360.03;96.33;;;;;;;-12.60;73.67;99508.11;120106;1144;64606;-82
2021/01/18 04:55:41;;;;;;;374.27;103.20;;;;;;;-12.52;73.74;99509.21;119825;1144;65033;-84
2021/01/18 04:58:18;;;;;;;382.73;104.87;;;;;;;-12.38;73.83;99507.86;119838;1144;65140;-80
2021/01/18 05:00:55;;;;;;;390.83;101.23;;;;;;;-12.24;73.86;99499.63;119999;1145;65098;-82
2021/01/18 05:03:24;;;;;;;353.10;97.00;;;;;;;-12.04;74.22;99508.72;119827;1144;65162;-82
2021/01/18 05:05:52;;;;;;;361.50;97.50;;;;;;;-12.08;73.71;99500.06;120269;1144;63862;-82
2021/01/18 05:08:57;;;;;;;360.43;101.43;;;;;;;-12.25;73.49;99498.75;119759;1144;65204;-82
2021/01/18 05:11:23;;;;;;;346.47;97.20;;;;;;;-12.39;73.81;99500.98;120129;1144;65001;-86
2021/01/18 05:13:50;;;;;;;374.60;101.00;;;;;;;-12.47;73.67;99494.73;119676;1145;65184;-82
2021/01/18 05:16:16;;;;;;;392.13;106.87;;;;;;;-12.55;73.94;99491.09;120152;1144;65050;-82
2021/01/18 05:18:42;;;;;;;414.90;109.37;;;;;;;-12.64;73.88;99499.45;119967;1144;65130;-83
2021/01/18 05:21:10;;;;;;;410.37;109.10;;;;;;;-12.62;74.09;99510.65;119753;1144;65109;-84
2021/01/18 05:23:41;;;;;;;522.00;133.80;;;;;;;-12.69;73.91;99507.88;119783;1144;65417;-86
2021/01/18 05:26:25;;;;;;;504.13;130.00;;;;;;;-12.76;73.77;99508.53;119795;1144;65293;-86
2021/01/18 05:28:54;;;;;;;521.80;139.57;;;;;;;-12.87;73.78;99515.94;120237;1145;65443;-84
2021/01/18 05:31:26;;;;;;;498.10;131.97;;;;;;;-12.96;73.95;99505.41;119963;1144;65167;-82
2021/01/18 05:33:56;;;;;;;506.17;133.50;;;;;;;-13.08;73.65;99500.78;119836;1144;65404;-84
2021/01/18 05:36:43;;;;;;;453.17;125.27;;;;;;;-13.15;73.93;99512.59;120198;1147;65079;-83
2021/01/18 05:39:13;;;;;;;422.90;113.57;;;;;;;-13.22;73.74;99510.70;119856;1147;65088;-83
2021/01/18 05:41:45;;;;;;;461.27;118.93;;;;;;;-13.29;73.75;99507.88;120086;1145;65091;-83
2021/01/18 05:44:12;;;;;;;420.97;111.27;;;;;;;-13.31;74.05;99502.70;119825;1144;65128;-82
2021/01/18 05:46:40;;;;;;;361.87;101.43;;;;;;;-13.24;74.18;99501.19;120193;1144;65060;-83
2021/01/18 05:49:14;;;;;;;397.50;111.63;;;;;;;-13.13;74.59;99494.64;119898;1144;65044;-83
2021/01/18 05:51:41;;;;;;;364.57;98.57;;;;;;;-12.98;74.26;99491.63;119766;1144;65124;-82
2021/01/18 05:54:12;;;;;;;328.75;91.00;;;;;;;-12.92;74.59;99500.38;119780;1145;65095;-83
2021/01/18 05:56:44;;;;;;;349.93;96.93;;;;;;;-12.83;74.51;99486.92;119775;1145;65194;-83
2021/01/18 05:59:16;;;;;;;323.53;91.43;;;;;;;-12.77;74.22;99491.37;119924;1144;65516;-82
2021/01/18 06:01:43;;;;;;;314.63;86.53;;;;;;;-12.90;74.04;99497.87;119787;1145;65108;-83
2021/01/18 06:04:14;;;;;;;322.60;94.77;;;;;;;-13.02;73.91;99489.81;119851;1145;65088;-82
2021/01/18 06:06:42;;;;;;;337.33;97.80;;;;;;;-13.06;73.90;99488.84;119784;1145;65600;-81
2021/01/18 06:09:08;;;;;;;338.83;95.30;;;;;;;-13.01;74.09;99492.42;120279;1147;63811;-80
2021/01/18 06:11:35;;;;;;;316.10;88.83;;;;;;;-13.03;73.93;99499.23;119759;1144;65169;-84
2021/01/18 06:14:04;;;;;;;328.10;92.13;;;;;;;-13.11;73.96;99495.55;119754;1145;65279;-84
2021/01/18 06:16:32;;;;;;;363.33;104.77;;;;;;;-13.14;73.70;99505.75;119780;1144;65114;-85
2021/01/18 06:19:05;;;;;;;338.77;102.37;;;;;;;-13.01;74.58;99499.27;119778;1145;65153;-82
2021/01/18 06:21:41;;;;;;;361.50;104.05;;;;;;;-12.87;74.12;99493.67;119798;1144;65156;-83
2021/01/18 06:24:18;;;;;;;381.83;107.17;;;;;;;-12.97;73.71;99499.40;119912;1144;65416;-85
2021/01/18 06:26:47;;;;;;;353.63;101.13;;;;;;;-13.01;73.91;99502.70;119818;1145;65075;-83
2021/01/18 06:29:36;;;;;;;358.80;101.87;;;;;;;-13.01;73.85;99501.83;119872;1145;65612;-82
2021/01/18 06:32:08;;;;;;;367.80;104.37;;;;;;;-12.99;74.13;99505.30;120221;1144;65118;-83
2021/01/18 06:34:35;;;;;;;347.73;99.77;;;;;;;-12.95;73.52;99504.58;120140;1144;65165;-82
2021/01/18 06:37:02;;;;;;;362.77;106.80;;;;;;;-12.89;74.32;99503.05;119814;1144;65134;-83
2021/01/18 06:39:31;;;;;;;349.15;99.75;;;;;;;-12.92;73.78;99497.80;119784;1144;65097;-84
2021/01/18 06:42:02;;;;;;;384.07;109.83;;;;;;;-12.91;73.93;99502.14;119858;1144;65075;-84
2021/01/18 06:44:37;;;;;;;400.67;112.13;;;;;;;-12.92;73.87;99502.08;119555;1144;65102;-81
2021/01/18 06:47:26;;;;;;;331.33;91.00;;;;;;;-12.83;74.29;99508.37;119581;1145;65105;-84
2021/01/18 06:49:55;;;;;;;344.30;100.70;;;;;;;-12.71;74.26;99499.25;119580;1145;65021;-83
2021/01/18 06:52:25;;;;;;;332.53;93.77;;;;;;;-12.63;74.32;99498.62;119804;1145;65197;-82
2021/01/18 06:54:59;;;;;;;340.03;96.20;;;;;;;-12.57;74.42;99491.06;119874;1145;65178;-82
2021/01/18 06:57:44;;;;;;;;;;;;;;;-12.48;74.56;99505.00;119835;1145;65114;-86
2021/01/18 07:00:16;;;;;;;235.20;66.53;;;;;;;-12.38;74.83;99497.57;119617;1144;65213;-83
2021/01/18 07:03:45;;;;;;;249.57;72.60;;;;;;;-12.22;74.74;99500.52;119619;1144;65717;-83
2021/01/18 07:06:32;;;;;;;260.67;78.33;;;;;;;-12.02;74.81;99507.94;119439;1150;65214;-82
2021/01/18 07:09:25;;;;;;;285.13;84.13;;;;;;;-11.87;74.97;99502.28;119526;1148;65121;-82
2021/01/18 07:12:02;;;;;;;295.63;84.17;;;;;;;-11.61;74.55;99500.28;119861;1148;65101;-83
2021/01/18 07:14:32;;;;;;;284.20;87.15;;;;;;;-11.50;75.24;99497.97;119188;1148;65290;-83
2021/01/18 07:17:10;;;;;;;309.87;92.07;;;;;;;-11.29;74.95;99490.70;119291;1148;65216;-84
2021/01/18 07:19:43;;;;;;;333.47;98.53;;;;;;;-11.11;74.83;99491.94;119231;1148;65121;-83
2021/01/18 07:22:34;;;;;;;325.15;97.25;;;;;;;-10.99;74.59;99489.62;119227;1148;65204;-84
2021/01/18 07:25:04;;;;;;;334.60;98.63;;;;;;;-10.87;74.80;99497.61;119247;1146;65111;-83
2021/01/18 07:27:49;;;;;;;319.60;93.60;;;;;;;-10.82;74.66;99501.12;119368;1149;65116;-83
2021/01/18 07:31:05;;;;;;;327.50;94.40;;;;;;;-10.71;74.39;99498.77;119293;1148;65274;-82
2021/01/18 07:33:33;;;;;;;322.97;94.10;;;;;;;-10.73;74.35;99501.33;119182;1150;65315;-83
2021/01/18 07:36:01;;;;;;;315.87;93.80;;;;;;;-10.76;73.26;99498.66;119230;1145;65295;-83
2021/01/18 07:38:37;;;;;;;280.07;85.10;;;;;;;-10.74;74.13;99499.59;119712;1144;65140;-82
2021/01/18 07:41:07;;;;;;;243.67;73.60;;;;;;;-10.73;73.18;99497.87;119665;1144;65095;-82
2021/01/18 07:43:44;;;;;;;263.53;74.30;;;;;;;-10.62;73.57;99493.80;119763;1144;65110;-82
2021/01/18 07:46:24;;;;;;;245.07;75.73;;;;;;;-10.44;73.54;99503.58;119553;1147;65191;-83
2021/01/18 07:49:13;;;;;;;286.07;81.50;;;;;;;-10.24;73.59;99502.25;119741;1144;65099;-83
2021/01/18 07:51:40;;;;;;;234.70;71.37;;;;;;;-10.00;74.33;99513.80;119787;1144;65151;-83
2021/01/18 07:54:37;;;;;;;206.67;64.17;;;;;;;-9.80;74.39;99504.66;119696;1146;65185;-84
2021/01/18 07:57:23;;;;;;;219.70;68.70;;;;;;;-9.52;74.09;99500.81;120083;1144;65169;-83
2021/01/18 08:00:10;;;;;;;196.47;61.50;;;;;;;-9.25;74.45;99489.99;119471;1147;65819;-84
2021/01/18 08:02:39;;;;;;;191.63;63.70;;;;;;;-8.89;74.69;99489.62;119517;1144;65098;-83
2021/01/18 08:05:26;;;;;;;189.77;66.40;;;;;;;-8.46;74.99;99490.99;119614;1144;65130;-82
2021/01/18 08:08:26;;;;;;;180.43;61.33;;;;;;;-7.95;74.88;99483.65;119837;1148;65472;-84
2021/01/18 08:11:15;;;;;;;181.57;63.57;;;;;;;-7.49;75.05;99474.53;120513;1147;65156;-81
2021/01/18 08:13:53;;;;;;;175.40;63.83;;;;;;;-7.01;75.79;99475.66;119745;1144;66044;-83
2021/01/18 08:16:28;;;;;;;150.90;55.27;;;;;;;-6.64;74.59;99468.03;119664;1146;65127;-82
2021/01/18 08:19:07;;;;;;;113.90;46.50;;;;;;;-6.19;74.95;99463.80;119541;1147;65111;-82
2021/01/18 08:21:39;;;;;;;98.53;38.23;;;;;;;-5.85;75.19;99456.86;119435;1144;65114;-82
2021/01/18 08:24:08;;;;;;;93.00;38.60;;;;;;;-5.56;75.09;99454.25;119484;1147;65155;-82
2021/01/18 08:27:03;;;;;;;87.73;33.00;;;;;;;-5.42;74.47;99454.23;119539;1144;65101;-81
2021/01/18 08:29:32;;;;;;;;;;;;;;;-5.55;74.34;99448.17;119454;1144;65104;-82
2021/01/18 08:32:24;;;;;;;70.73;27.80;;;;;;;-5.53;74.18;99449.93;119503;1144;65122;-83
2021/01/18 08:34:54;;;;;;;72.80;28.35;;;;;;;-5.60;73.65;99463.78;119573;1144;65101;-82
2021/01/18 08:37:23;;;;;;;70.50;30.17;;;;;;;-5.65;73.93;99454.28;119723;1147;65194;-83
2021/01/18 08:39:57;;;;;;;69.47;30.77;;;;;;;-5.66;74.09;99463.81;119853;1144;65101;-83
2021/01/18 08:42:27;;;;;;;74.33;29.77;;;;;;;-5.69;74.19;99460.34;119831;1144;65079;-83
2021/01/18 08:45:08;;;;;;;84.03;33.43;;;;;;;-5.73;73.81;99460.32;119719;1147;65094;-84
2021/01/18 08:47:51;;;;;;;74.10;29.15;;;;;;;-5.73;73.80;99462.06;119838;1147;65169;-83
2021/01/18 08:50:23;;;;;;;78.63;32.00;;;;;;;-5.66;74.81;99461.22;119930;1147;65212;-83
2021/01/18 08:52:52;;;;;;;72.77;31.70;;;;;;;-5.44;75.28;99462.91;120109;1144;65009;-82
2021/01/18 08:55:27;;;;;;;90.83;38.07;;;;;;;-5.13;74.76;99469.80;119962;1144;65251;-83
2021/01/18 08:58:04;;;;;;;144.95;52.20;;;;;;;-4.90;74.95;99466.27;119830;1147;65104;-83
2021/01/18 09:00:42;;;;;;;257.93;94.40;;;;;;;-4.76;74.79;99463.61;119830;1148;65519;-82
2021/01/18 09:03:10;;;;;;;443.43;169.40;;;;;;;-4.59;74.93;99473.94;119855;1146;65096;-82
2021/01/18 09:05:38;;;;;;;351.97;148.00;;;;;;;-4.38;74.71;99473.85;119835;1147;65121;-84
2021/01/18 09:08:07;;;;;;;197.70;74.05;;;;;;;-4.28;74.54;99473.79;119881;1147;65107;-84
2021/01/18 09:10:34;;;;;;;146.60;56.87;;;;;;;-4.15;74.79;99478.91;120055;1144;65049;-81
2021/01/18 09:13:04;;;;;;;93.77;39.57;;;;;;;-3.97;74.59;99482.29;119694;1144;65194;-83
2021/01/18 09:15:31;;;;;;;103.50;39.53;;;;;;;-3.88;74.47;99479.60;119837;1144;65197;-82
2021/01/18 09:18:07;;;;;;;96.27;39.37;;;;;;;-3.79;73.84;99481.30;119724;1147;65104;-82
2021/01/18 09:20:41;;;;;;;111.27;42.77;;;;;;;-3.72;74.11;99476.02;119750;1147;65212;-82
2021/01/18 09:23:11;;;;;;;99.30;39.67;;;;;;;-3.67;74.19;99469.02;119899;1146;65098;-87
2021/01/18 09:25:38;;;;;;;109.30;39.93;;;;;;;-3.65;73.56;99469.86;119886;1144;65110;-83
2021/01/18 09:28:10;;;;;;;85.90;36.15;;;;;;;-3.58;74.13;99466.31;119812;1144;65196;-83
2021/01/18 09:30:38;;;;;;;77.75;32.05;;;;;;;-3.45;73.92;99467.07;119833;1144;65076;-82
2021/01/18 09:33:07;;;;;;;87.67;36.50;;;;;;;-3.38;73.33;99460.05;119987;1144;65158;-83
2021/01/18 09:35:38;;;;;;;86.67;36.57;;;;;;;-3.39;73.84;99459.19;120001;1144;65465;-82
2021/01/18 09:38:06;;;;;;;89.63;38.07;;;;;;;-3.31;73.52;99459.11;120012;1144;65115;-82
2021/01/18 09:40:36;;;;;;;96.50;40.10;;;;;;;-3.17;73.47;99458.99;120004;1142;65006;-81
2021/01/18 09:43:04;;;;;;;81.07;35.10;;;;;;;-2.97;74.29;99450.94;119980;1144;65702;-83
2021/01/18 09:45:33;;;;;;;100.30;39.30;;;;;;;-2.66;74.93;99447.08;119844;1144;65481;-82
2021/01/18 09:48:05;;;;;;;94.93;40.67;;;;;;;-2.45;74.23;99438.94;119883;1144;64974;-82
2021/01/18 09:50:33;;;;;;;114.47;42.37;;;;;;;-2.29;74.35;99428.25;119865;1144;65264;-82
2021/01/18 09:53:05;;;;;;;96.23;43.17;;;;;;;-2.13;74.63;99429.77;119912;1144;65109;-82
2021/01/18 09:55:36;;;;;;;126.27;51.00;;;;;;;-2.02;74.46;99427.00;119924;1144;65200;-81
2021/01/18 09:58:12;;;;;;;165.70;66.20;;;;;;;-1.93;73.93;99425.09;119901;1145;65162;-84
2021/01/18 10:00:43;;;;;;;177.27;65.63;;;;;;;-1.90;73.97;99413.72;119890;1144;66714;-83
2021/01/18 10:03:11;;;;;;;137.50;53.70;;;;;;;-1.75;73.63;99418.70;119942;1144;65056;-83
2021/01/18 10:05:42;;;;;;;144.37;54.13;;;;;;;-1.71;73.45;99416.91;119997;1146;65208;-80
2021/01/18 10:08:17;;;;;;;117.13;49.13;;;;;;;-1.61;74.07;99417.59;119983;1144;65499;-84
2021/01/18 10:10:46;;;;;;;115.07;48.00;;;;;;;-1.58;73.93;99417.56;119859;1144;65092;-81
2021/01/18 10:13:20;;;;;;;104.07;46.03;;;;;;;-1.62;73.21;99411.50;120214;1144;65092;-81
2021/01/18 10:15:47;;;;;;;113.90;48.45;;;;;;;-1.64;73.16;99421.14;120494;1144;65830;-82
2021/01/18 10:18:32;;;;;;;111.03;49.63;;;;;;;-1.61;74.36;99418.45;119823;1145;65198;-83
2021/01/18 10:21:01;;;;;;;102.23;45.47;;;;;;;-1.52;74.06;99420.94;120013;1144;65236;-85
2021/01/18 10:23:32;;;;;;;99.30;45.70;;;;;;;-1.45;73.26;99417.31;119826;1145;65296;-81
2021/01/18 10:26:18;;;;;;;102.50;39.80;;;;;;;-1.47;72.58;99419.07;119855;1145;65102;-85
2021/01/18 10:28:54;;;;;;;85.15;40.95;;;;;;;-1.69;72.13;99408.13;119945;1145;65162;-81
2021/01/18 10:31:22;;;;;;;90.57;39.00;;;;;;;-1.69;72.62;99402.02;119856;1144;65105;-82
2021/01/18 10:34:11;;;;;;;92.50;39.27;;;;;;;-1.61;73.30;99407.13;120024;1145;65607;-82
2021/01/18 10:36:46;;;;;;;100.20;40.07;;;;;;;-1.58;72.81;99392.23;119974;1144;65089;-81
2021/01/18 10:39:37;;;;;;;106.67;44.40;;;;;;;-1.51;73.71;99396.47;119908;1147;65196;-83
2021/01/18 10:42:08;;;;;;;90.87;37.53;;;;;;;-1.51;72.59;99399.09;120053;1144;65175;-83
2021/01/18 10:44:38;;;;;;;80.90;33.07;;;;;;;-1.45;73.64;99396.36;119851;1144;65103;-83
2021/01/18 10:47:06;;;;;;;86.47;34.33;;;;;;;-1.36;72.91;99390.94;119850;1145;65219;-82
2021/01/18 10:49:35;;;;;;;82.33;31.73;;;;;;;-1.28;73.54;99384.69;119816;1144;65156;-83
2021/01/18 10:52:03;;;;;;;89.87;35.47;;;;;;;-1.21;73.75;99394.15;119778;1144;65072;-82
2021/01/18 10:54:29;;;;;;;76.45;32.65;;;;;;;-1.15;73.69;99394.89;119861;1144;65127;-83
2021/01/18 10:56:58;;;;;;;69.13;29.50;;;;;;;-1.13;72.72;99394.89;119904;1145;65015;-83
2021/01/18 10:59:26;;;;;;;80.75;35.30;;;;;;;-1.15;72.83;99394.03;119969;1144;65009;-84
2021/01/18 11:01:58;;;;;;;78.43;31.17;;;;;;;-1.16;72.23;99395.80;119806;1145;65130;-81
2021/01/18 11:04:27;;;;;;;72.17;31.70;;;;;;;-1.22;72.82;99380.19;119919;1148;65043;-81
2021/01/18 11:06:56;;;;;;;54.05;25.50;;;;;;;-1.28;72.59;99382.06;120085;1144;65531;-82
2021/01/18 11:09:41;;;;;;;70.47;32.27;;;;;;;-1.37;73.72;99383.97;119950;1145;65085;-82
2021/01/18 11:12:07;;;;;;;69.67;30.77;;;;;;;-1.33;74.03;99382.17;119789;1145;65018;-83
2021/01/18 11:14:35;;;;;;;67.50;31.10;;;;;;;-1.29;74.15;99381.20;119765;1145;65057;-80
2021/01/18 11:17:06;;;;;;;78.17;30.23;;;;;;;-1.25;73.01;99387.27;120218;1145;65108;-80
2021/01/18 11:19:34;;;;;;;52.03;21.83;;;;;;;-1.28;72.84;99382.92;119782;1145;65156;-82